Time;durP1;ratioP1;P1;durP2;ratioP2;P2;SDS_P1;SDS_P2;PMS_P1;PMS_P2;Temp;Humidity;BMP_temperature;BMP_pressure;BME280_temperature;BME280_humidity;BME280_pressure;Samples;Min_cycle;Max_cycle;Signal;HPM_P1;HPM_P2
2022/08/06 00:02:04;;;;;;;0.70;0.20;;;20.30;99.90;;;;;;4993312;28;20508;-73
2022/08/06 00:04:37;;;;;;;0.70;0.10;;;20.30;99.90;;;;;;4996789;28;20463;-74
2022/08/06 00:07:05;;;;;;;0.70;0.17;;;20.30;99.90;;;;;;5008759;28;20535;-73
2022/08/06 00:09:33;;;;;;;0.70;0.20;;;20.20;99.90;;;;;;5013690;28;20451;-72
2022/08/06 00:12:21;;;;;;;0.70;0.20;;;20.20;99.90;;;;;;5014023;28;20507;-74
2022/08/06 00:14:56;;;;;;;0.70;0.10;;;20.20;99.90;;;;;;5011381;28;20459;-74
2022/08/06 00:17:25;;;;;;;0.70;0.10;;;20.10;99.90;;;;;;4993896;28;20537;-73
2022/08/06 00:20:01;;;;;;;0.70;0.10;;;20.10;99.90;;;;;;4994547;28;20548;-72
2022/08/06 00:22:30;;;;;;;0.70;0.10;;;20.10;99.90;;;;;;4994622;28;20477;-75
2022/08/06 00:24:59;;;;;;;0.70;0.10;;;20.00;99.90;;;;;;4994160;28;20546;-74
2022/08/06 00:27:27;;;;;;;0.70;0.10;;;20.00;99.90;;;;;;4994151;28;20485;-75
2022/08/06 00:30:08;;;;;;;0.70;0.20;;;20.00;99.90;;;;;;5013038;28;20444;-73
2022/08/06 00:32:49;;;;;;;0.70;0.20;;;20.00;99.90;;;;;;4986050;28;20485;-74
2022/08/06 00:35:21;;;;;;;0.60;0.10;;;20.00;99.90;;;;;;4978094;28;20989;-74
2022/08/06 00:37:51;;;;;;;0.70;0.10;;;20.00;99.90;;;;;;5002861;28;20461;-74
2022/08/06 00:40:25;;;;;;;0.70;0.20;;;19.90;99.90;;;;;;4992491;28;20473;-75
2022/08/06 00:42:56;;;;;;;0.67;0.20;;;19.90;99.90;;;;;;4994459;28;20453;-73
2022/08/06 00:45:25;;;;;;;0.70;0.10;;;19.90;99.90;;;;;;4994255;28;20555;-73
2022/08/06 00:47:53;;;;;;;0.70;0.20;;;19.90;99.90;;;;;;4991243;28;20481;-73
2022/08/06 00:50:32;;;;;;;0.70;0.10;;;19.80;99.90;;;;;;4974707;28;20446;-74
2022/08/06 00:53:02;;;;;;;0.70;0.10;;;19.80;99.90;;;;;;4974262;28;20474;-73
2022/08/06 00:55:31;;;;;;;0.70;0.20;;;19.80;99.90;;;;;;4986775;28;20511;-73
2022/08/06 00:58:04;;;;;;;0.70;0.10;;;19.70;99.90;;;;;;4993690;28;20441;-73
2022/08/06 01:00:32;;;;;;;0.60;0.10;;;19.70;99.90;;;;;;4993704;28;20477;-74
2022/08/06 01:03:07;;;;;;;0.70;0.17;;;19.50;99.90;;;;;;4981983;28;20477;-72
2022/08/06 01:05:56;;;;;;;0.60;0.10;;;19.40;99.90;;;;;;4975796;28;20497;-73
2022/08/06 01:08:44;;;;;;;0.60;0.10;;;19.40;99.90;;;;;;4976703;28;20580;-75
2022/08/06 01:11:13;;;;;;;0.70;0.20;;;19.30;99.90;;;;;;4976193;28;20446;-74
2022/08/06 01:13:42;;;;;;;0.60;0.10;;;19.30;99.90;;;;;;4974496;28;20545;-75
2022/08/06 01:16:37;;;;;;;0.60;0.17;;;19.30;99.90;;;;;;4980868;28;20438;-75
2022/08/06 01:19:41;;;;;;;0.60;0.10;;;19.30;99.90;;;;;;4981499;28;20450;-74
2022/08/06 01:22:56;;;;;;;0.60;0.10;;;19.30;99.90;;;;;;4974187;28;20863;-73
2022/08/06 01:25:43;;;;;;;0.60;0.10;;;19.40;99.90;;;;;;4994344;28;20447;-74
2022/08/06 01:28:21;;;;;;;0.70;0.40;;;19.40;99.90;;;;;;4999693;28;20516;-72
2022/08/06 01:31:02;;;;;;;0.60;0.20;;;19.40;99.90;;;;;;5001238;28;20457;-73
2022/08/06 01:33:34;;;;;;;0.60;0.10;;;19.40;99.90;;;;;;4992292;28;20488;-73
2022/08/06 01:36:11;;;;;;;0.60;0.10;;;19.40;99.90;;;;;;4998787;28;20469;-72
2022/08/06 01:38:45;;;;;;;0.60;0.10;;;19.30;99.90;;;;;;4989562;28;20469;-74
2022/08/06 01:41:41;;;;;;;0.60;0.20;;;19.30;99.90;;;;;;5001384;28;20511;-73
2022/08/06 01:44:31;;;;;;;0.60;0.10;;;19.30;99.90;;;;;;4983546;28;20846;-72
2022/08/06 01:47:03;;;;;;;0.60;0.10;;;19.30;99.90;;;;;;4971541;28;20499;-74
2022/08/06 01:49:45;;;;;;;0.70;0.30;;;19.20;99.90;;;;;;4973304;28;20500;-73
2022/08/06 01:52:34;;;;;;;0.60;0.20;;;19.20;99.90;;;;;;4973381;28;20533;-71
2022/08/06 01:55:07;;;;;;;0.60;0.20;;;19.10;99.90;;;;;;4973189;28;20514;-72
2022/08/06 01:57:42;;;;;;;0.60;0.10;;;19.10;99.90;;;;;;4979900;28;20456;-75
2022/08/06 02:00:34;;;;;;;0.60;0.10;;;19.00;99.90;;;;;;4992018;28;20532;-75
2022/08/06 02:03:12;;;;;;;0.60;0.10;;;19.00;99.90;;;;;;5000019;28;20496;-72
2022/08/06 02:05:49;;;;;;;0.60;0.10;;;19.00;99.90;;;;;;4991083;28;20451;-72
2022/08/06 02:08:24;;;;;;;0.60;0.20;;;19.00;99.90;;;;;;5001410;28;20871;-72
2022/08/06 02:11:10;;;;;;;0.60;0.10;;;18.90;99.90;;;;;;4985629;28;20458;-74
2022/08/06 02:14:00;;;;;;;1.40;0.73;;;18.80;99.90;;;;;;4971370;28;20823;-73
2022/08/06 02:16:34;;;;;;;0.60;0.10;;;18.80;99.90;;;;;;4972634;28;20875;-72
2022/08/06 02:19:04;;;;;;;1.07;0.90;;;18.80;99.90;;;;;;4972441;28;20886;-73
2022/08/06 02:21:42;;;;;;;0.60;0.20;;;18.70;99.90;;;;;;4971252;28;21151;-73
2022/08/06 02:24:18;;;;;;;0.60;0.10;;;18.70;99.90;;;;;;4972271;28;20454;-73
2022/08/06 02:26:47;;;;;;;0.60;0.20;;;18.70;99.90;;;;;;4988784;28;20464;-73
2022/08/06 02:29:19;;;;;;;0.60;0.10;;;18.70;99.90;;;;;;5003922;28;20482;-72
2022/08/06 02:31:51;;;;;;;0.60;0.20;;;18.60;99.90;;;;;;5005687;28;20512;-69
2022/08/06 02:34:20;;;;;;;0.60;0.10;;;18.50;99.90;;;;;;4972274;28;20457;-68
2022/08/06 02:37:03;;;;;;;0.60;0.10;;;18.50;99.90;;;;;;4972839;28;20493;-71
2022/08/06 02:39:38;;;;;;;0.60;0.13;;;18.50;99.90;;;;;;4972694;28;20457;-73
2022/08/06 02:42:23;;;;;;;0.60;0.10;;;18.40;99.90;;;;;;4972458;28;20478;-70
2022/08/06 02:45:01;;;;;;;1.83;1.47;;;18.40;99.90;;;;;;4972366;28;20766;-69
2022/08/06 02:47:36;;;;;;;0.60;0.10;;;18.20;99.90;;;;;;4972342;28;20496;-70
2022/08/06 02:50:33;;;;;;;0.60;0.20;;;18.20;99.90;;;;;;4972821;28;20437;-70
2022/08/06 02:53:08;;;;;;;0.60;0.10;;;18.30;99.90;;;;;;4972879;28;20470;-69
2022/08/06 02:55:55;;;;;;;0.60;0.20;;;18.20;99.90;;;;;;4972613;28;20430;-70
2022/08/06 02:58:31;;;;;;;0.60;0.20;;;18.20;99.90;;;;;;4972331;28;20445;-71
2022/08/06 03:01:09;;;;;;;0.60;0.10;;;18.20;99.90;;;;;;4972457;28;20591;-69
2022/08/06 03:03:41;;;;;;;0.60;0.10;;;18.10;99.90;;;;;;4971934;28;20836;-70
2022/08/06 03:06:29;;;;;;;0.60;0.10;;;18.10;99.90;;;;;;4971936;28;20438;-73
2022/08/06 03:09:00;;;;;;;0.60;0.20;;;18.00;99.90;;;;;;4971642;28;20895;-70
2022/08/06 03:11:32;;;;;;;0.60;0.13;;;18.00;99.90;;;;;;4971948;28;20560;-70
2022/08/06 03:14:03;;;;;;;0.60;0.10;;;18.00;99.90;;;;;;4971802;28;20532;-70
2022/08/06 03:16:53;;;;;;;0.60;0.20;;;18.00;99.90;;;;;;4971591;28;20438;-70
2022/08/06 03:19:28;;;;;;;0.60;0.10;;;17.90;99.90;;;;;;4971938;28;20423;-70
2022/08/06 03:22:18;;;;;;;0.60;0.10;;;17.90;99.90;;;;;;4984554;28;20472;-70
2022/08/06 03:25:07;;;;;;;0.60;0.10;;;17.90;99.90;;;;;;4991549;28;20517;-70
2022/08/06 03:27:37;;;;;;;0.60;0.20;;;17.90;99.90;;;;;;4991070;28;20536;-69
2022/08/06 03:30:12;;;;;;;0.60;0.20;;;17.90;99.90;;;;;;4988010;28;20539;-71
2022/08/06 03:33:02;;;;;;;0.60;0.10;;;17.80;99.90;;;;;;4991157;28;20472;-70
2022/08/06 03:35:53;;;;;;;0.60;0.13;;;17.80;99.90;;;;;;4991201;28;20460;-68
2022/08/06 03:38:23;;;;;;;0.60;0.20;;;17.80;99.90;;;;;;4980112;28;20459;-69
2022/08/06 03:40:57;;;;;;;0.60;0.10;;;17.80;99.90;;;;;;4987269;28;20476;-70
2022/08/06 03:43:28;;;;;;;0.60;0.20;;;17.80;99.90;;;;;;4994690;28;20469;-75
2022/08/06 03:46:21;;;;;;;0.60;0.20;;;17.80;99.90;;;;;;4994180;28;20821;-71
2022/08/06 03:48:53;;;;;;;0.60;0.10;;;17.80;99.90;;;;;;4998788;28;20481;-71
2022/08/06 03:51:26;;;;;;;0.60;0.10;;;17.80;99.90;;;;;;4975253;28;20446;-69
2022/08/06 03:54:18;;;;;;;0.60;0.10;;;17.80;99.90;;;;;;4976043;28;20438;-71
2022/08/06 03:56:58;;;;;;;0.60;0.20;;;17.70;99.90;;;;;;4974853;28;20434;-71
2022/08/06 03:59:27;;;;;;;0.60;0.10;;;17.70;99.90;;;;;;4978213;28;20481;-72
2022/08/06 04:02:06;;;;;;;0.60;0.20;;;17.70;99.90;;;;;;4996585;28;20515;-69
2022/08/06 04:04:52;;;;;;;0.60;0.10;;;17.60;99.90;;;;;;4981668;28;20850;-69
2022/08/06 04:07:23;;;;;;;0.60;0.13;;;17.60;99.90;;;;;;4975691;28;20442;-69
2022/08/06 04:10:12;;;;;;;0.60;0.10;;;17.60;99.90;;;;;;4974875;28;20478;-70
2022/08/06 04:12:49;;;;;;;0.60;0.10;;;17.60;99.90;;;;;;4974900;28;20484;-69
2022/08/06 04:15:38;;;;;;;0.60;0.10;;;17.50;99.90;;;;;;4974968;28;20500;-69
2022/08/06 04:18:09;;;;;;;0.60;0.30;;;17.50;99.90;;;;;;4974758;28;20446;-69
2022/08/06 04:20:40;;;;;;;0.60;0.10;;;17.40;99.90;;;;;;4986642;28;20438;-70
2022/08/06 04:23:12;;;;;;;2.10;1.33;;;17.40;99.90;;;;;;4994245;28;20460;-74
2022/08/06 04:25:42;;;;;;;0.60;0.10;;;17.30;99.90;;;;;;4994098;28;20449;-69
2022/08/06 04:28:12;;;;;;;0.60;0.13;;;17.30;99.90;;;;;;4993664;28;20929;-70
2022/08/06 04:30:43;;;;;;;0.60;0.20;;;17.20;99.90;;;;;;4994098;28;20573;-68
2022/08/06 04:33:19;;;;;;;0.60;0.10;;;17.20;99.90;;;;;;4975110;28;20885;-72
2022/08/06 04:36:05;;;;;;;0.60;0.20;;;17.20;99.90;;;;;;4975155;28;20516;-70
2022/08/06 04:38:53;;;;;;;0.60;0.10;;;17.10;99.90;;;;;;4975324;28;20427;-72
2022/08/06 04:41:24;;;;;;;0.60;0.10;;;17.10;99.90;;;;;;4974957;28;20466;-69
2022/08/06 04:43:53;;;;;;;0.60;0.10;;;17.10;99.90;;;;;;4973888;28;20951;-69
2022/08/06 04:46:23;;;;;;;0.60;0.20;;;17.10;99.90;;;;;;4974874;28;20486;-70
2022/08/06 04:48:54;;;;;;;0.60;0.20;;;17.10;99.90;;;;;;4973997;28;20971;-71
2022/08/06 04:51:28;;;;;;;0.60;0.20;;;17.00;99.90;;;;;;4992041;28;20426;-70
2022/08/06 04:54:17;;;;;;;0.60;0.10;;;17.00;99.90;;;;;;4993846;28;20438;-70
2022/08/06 04:56:49;;;;;;;0.60;0.20;;;17.00;99.90;;;;;;4993831;28;20432;-70
2022/08/06 04:59:17;;;;;;;0.60;0.10;;;16.90;99.90;;;;;;4993433;28;20445;-70
2022/08/06 05:01:46;;;;;;;0.60;0.10;;;16.90;99.90;;;;;;4993732;28;20445;-69
2022/08/06 05:04:29;;;;;;;0.70;0.30;;;16.90;99.90;;;;;;4993594;28;20433;-70
2022/08/06 05:07:07;;;;;;;0.60;0.20;;;16.90;99.90;;;;;;4993411;28;20450;-69
2022/08/06 05:09:41;;;;;;;0.60;0.20;;;17.00;99.90;;;;;;4993415;28;20491;-70
2022/08/06 05:12:24;;;;;;;0.60;0.10;;;16.90;99.90;;;;;;4993724;28;20475;-70
2022/08/06 05:14:57;;;;;;;0.60;0.20;;;16.90;99.90;;;;;;4993136;28;20926;-70
2022/08/06 05:17:30;;;;;;;0.60;0.10;;;17.00;99.90;;;;;;4992215;28;21155;-71
2022/08/06 05:20:07;;;;;;;0.60;0.20;;;17.00;99.90;;;;;;4993286;28;20528;-69
2022/08/06 05:23:00;;;;;;;0.60;0.10;;;17.00;99.90;;;;;;4987059;28;20472;-69
2022/08/06 05:25:36;;;;;;;0.60;0.10;;;17.00;99.90;;;;;;4989058;28;20532;-69
2022/08/06 05:28:05;;;;;;;0.60;0.20;;;17.00;99.90;;;;;;4995158;28;20449;-71
2022/08/06 05:30:44;;;;;;;0.60;0.10;;;17.00;99.90;;;;;;4973599;28;20928;-72
2022/08/06 05:33:12;;;;;;;0.60;0.10;;;17.10;99.90;;;;;;4974139;28;20477;-69
2022/08/06 05:35:44;;;;;;;0.60;0.10;;;17.10;99.90;;;;;;4973932;28;20462;-70
2022/08/06 05:38:30;;;;;;;0.60;0.10;;;17.10;99.90;;;;;;4973324;28;20965;-69
2022/08/06 05:41:05;;;;;;;0.60;0.10;;;17.10;99.90;;;;;;4973030;28;20529;-72
2022/08/06 05:43:35;;;;;;;0.60;0.10;;;17.20;99.90;;;;;;4973320;28;20470;-70
2022/08/06 05:46:25;;;;;;;0.60;0.20;;;17.30;99.90;;;;;;4973724;28;20438;-73
2022/08/06 05:49:00;;;;;;;0.60;0.10;;;17.30;99.90;;;;;;4998562;28;20488;-72
2022/08/06 05:51:34;;;;;;;0.60;0.20;;;;;;;;;;5012081;28;20983;-69
2022/08/06 05:54:22;;;;;;;0.60;0.10;;;17.30;99.90;;;;;;5011419;28;20458;-69
2022/08/06 05:57:01;;;;;;;0.60;0.20;;;17.30;99.90;;;;;;5011957;28;21133;-71
2022/08/06 05:59:35;;;;;;;0.60;0.17;;;17.30;99.90;;;;;;5011226;28;20526;-70
2022/08/06 06:02:25;;;;;;;0.60;0.10;;;17.30;99.90;;;;;;4972314;28;20465;-74
2022/08/06 06:04:55;;;;;;;0.90;0.50;;;17.30;99.90;;;;;;4972145;28;20480;-70
2022/08/06 06:07:43;;;;;;;0.60;0.20;;;17.30;99.90;;;;;;4973506;28;20447;-70
2022/08/06 06:10:33;;;;;;;0.60;0.20;;;17.30;99.90;;;;;;4972134;28;20479;-70
2022/08/06 06:13:04;;;;;;;0.70;0.30;;;17.40;99.90;;;;;;4988685;28;20510;-70
2022/08/06 06:15:58;;;;;;;0.60;0.10;;;17.40;99.90;;;;;;4986825;28;20950;-71
2022/08/06 06:18:43;;;;;;;1.37;1.27;;;17.40;99.90;;;;;;4991349;28;20437;-73
2022/08/06 06:21:19;;;;;;;0.60;0.13;;;17.40;99.90;;;;;;4991468;28;20502;-68
2022/08/06 06:24:07;;;;;;;0.60;0.10;;;17.40;99.90;;;;;;4991278;28;20465;-70
2022/08/06 06:26:43;;;;;;;0.60;0.20;;;17.50;99.90;;;;;;4991415;28;20449;-68
2022/08/06 06:29:21;;;;;;;0.60;0.10;;;17.60;99.90;;;;;;4991801;28;20445;-70
2022/08/06 06:32:28;;;;;;;0.60;0.10;;;17.70;99.90;;;;;;4972086;28;20454;-70
2022/08/06 06:35:03;;;;;;;0.60;0.10;;;17.60;99.90;;;;;;4971877;28;20532;-74
2022/08/06 06:37:45;;;;;;;0.60;0.10;;;17.80;99.90;;;;;;4971364;28;20521;-69
2022/08/06 06:40:35;;;;;;;0.60;0.10;;;17.80;99.90;;;;;;4971374;28;20454;-73
2022/08/06 06:43:09;;;;;;;0.60;0.10;;;17.90;99.90;;;;;;4971139;28;20466;-69
2022/08/06 06:45:48;;;;;;;0.70;0.40;;;18.00;99.90;;;;;;4971196;28;20893;-70
2022/08/06 06:48:41;;;;;;;0.60;0.10;;;18.00;99.90;;;;;;4971070;28;20450;-70
2022/08/06 06:51:22;;;;;;;0.60;0.10;;;18.10;99.90;;;;;;4971488;28;20483;-71
2022/08/06 06:54:17;;;;;;;0.60;0.20;;;18.10;99.90;;;;;;4970999;28;20968;-68
2022/08/06 06:56:53;;;;;;;0.60;0.10;;;18.10;99.90;;;;;;4971389;28;20770;-69
2022/08/06 06:59:30;;;;;;;0.60;0.20;;;18.10;99.90;;;;;;4971296;28;20488;-71
2022/08/06 07:02:25;;;;;;;0.60;0.20;;;21.40;99.90;;;;;;4971660;28;21064;-71
2022/08/06 07:04:57;;;;;;;0.60;0.20;;;18.30;99.90;;;;;;4971641;28;20517;-70
2022/08/06 07:07:28;;;;;;;0.60;0.20;;;18.30;99.90;;;;;;4972278;28;20561;-70
2022/08/06 07:09:59;;;;;;;0.60;0.10;;;18.40;99.90;;;;;;4971483;28;20477;-74
2022/08/06 07:12:34;;;;;;;0.60;0.20;;;18.40;99.90;;;;;;4971123;28;20489;-70
2022/08/06 07:15:08;;;;;;;0.60;0.20;;;18.50;99.90;;;;;;4972636;28;20437;-70
2022/08/06 07:17:50;;;;;;;0.60;0.20;;;18.50;99.90;;;;;;4974203;28;20429;-73
2022/08/06 07:20:29;;;;;;;0.60;0.20;;;18.50;99.90;;;;;;4974795;28;20422;-70
2022/08/06 07:23:00;;;;;;;0.60;0.10;;;18.60;99.90;;;;;;4974465;28;20857;-74
2022/08/06 07:25:50;;;;;;;0.60;0.10;;;18.70;99.90;;;;;;4974161;28;20914;-70
2022/08/06 07:28:25;;;;;;;0.60;0.10;;;18.70;99.90;;;;;;4984680;28;20435;-71
2022/08/06 07:30:57;;;;;;;0.77;0.70;;;18.70;99.90;;;;;;5013712;28;20811;-70
2022/08/06 07:33:35;;;;;;;0.60;0.10;;;18.80;99.90;;;;;;4995275;28;20476;-70
2022/08/06 07:36:49;;;;;;;0.60;0.20;;;18.80;99.90;;;;;;5089650;27;20608;-74
2022/08/06 07:39:26;;;;;;;0.60;0.10;;;18.80;99.90;;;;;;5089273;28;20842;-77
2022/08/06 07:42:01;;;;;;;0.60;0.10;;;19.00;99.90;;;;;;5089062;28;20511;-73
2022/08/06 07:44:43;;;;;;;0.70;0.33;;;18.90;99.90;;;;;;5088448;28;20762;-72
2022/08/06 07:47:31;;;;;;;0.60;0.10;;;19.10;99.90;;;;;;5088566;28;20934;-72
2022/08/06 07:50:20;;;;;;;0.60;0.20;;;19.10;99.90;;;;;;5070448;28;20441;-71
2022/08/06 07:52:54;;;;;;;0.70;0.43;;;19.10;99.90;;;;;;5067940;28;20544;-73
2022/08/06 07:55:25;;;;;;;0.60;0.10;;;19.20;99.90;;;;;;5077433;28;20470;-75
2022/08/06 07:58:05;;;;;;;0.60;0.20;;;19.20;99.90;;;;;;5071873;28;20507;-70
2022/08/06 08:00:36;;;;;;;0.60;0.10;;;19.20;99.90;;;;;;5077753;28;20858;-75
2022/08/06 08:06:18;;;;;;;0.60;0.10;;;19.30;99.90;;;;;;5051894;28;20464;-72
2022/08/06 08:08:51;;;;;;;0.60;0.10;;;19.40;99.90;;;;;;5067933;28;20469;-72
2022/08/06 08:11:20;;;;;;;0.60;0.20;;;19.50;99.90;;;;;;5066634;28;21188;-72
2022/08/06 08:14:09;;;;;;;0.60;0.13;;;19.50;99.90;;;;;;5077624;28;20783;-72
2022/08/06 08:16:40;;;;;;;0.60;0.10;;;19.50;99.90;;;;;;5087179;28;20874;-72
2022/08/06 08:19:24;;;;;;;0.70;0.20;;;19.50;99.90;;;;;;5079662;28;20448;-71
2022/08/06 08:21:56;;;;;;;0.60;0.10;;;19.50;99.90;;;;;;5078385;28;20550;-73
2022/08/06 08:24:26;;;;;;;0.63;0.10;;;19.50;99.90;;;;;;5081858;28;20449;-78
2022/08/06 08:26:56;;;;;;;0.70;0.20;;;19.50;99.90;;;;;;5077394;28;20438;-78
2022/08/06 08:29:44;;;;;;;0.60;0.10;;;19.60;99.90;;;;;;5088009;28;20528;-78
2022/08/06 08:32:24;;;;;;;0.60;0.10;;;19.60;99.90;;;;;;5095231;28;20489;-77
2022/08/06 08:34:53;;;;;;;0.70;0.20;;;;;;;;;;5088742;28;20457;-78
2022/08/06 08:37:24;;;;;;;0.60;0.10;;;19.70;99.90;;;;;;5084377;28;20456;-77
2022/08/06 08:39:53;;;;;;;0.63;0.10;;;19.60;99.90;;;;;;5090854;28;20504;-79
2022/08/06 08:42:29;;;;;;;0.70;0.30;;;19.60;99.90;;;;;;5090511;28;20484;-81
2022/08/06 08:45:00;;;;;;;0.60;0.10;;;19.60;99.90;;;;;;5091349;28;20437;-78
2022/08/06 08:47:30;;;;;;;0.60;0.10;;;19.60;99.90;;;;;;5081419;28;20514;-78
2022/08/06 08:50:20;;;;;;;0.60;0.10;;;19.70;99.90;;;;;;5078247;28;20438;-79
2022/08/06 08:52:52;;;;;;;0.60;0.13;;;19.70;99.90;;;;;;5076357;28;20461;-79
2022/08/06 08:55:25;;;;;;;0.70;0.30;;;19.70;99.90;;;;;;5071939;28;20492;-77
2022/08/06 08:58:15;;;;;;;0.70;0.20;;;19.90;99.90;;;;;;5065303;28;20442;-78
2022/08/06 09:01:06;;;;;;;0.70;0.20;;;19.90;99.90;;;;;;5074347;28;20429;-78
2022/08/06 09:03:35;;;;;;;0.70;0.10;;;20.00;99.90;;;;;;5074205;28;20466;-76
2022/08/06 09:06:08;;;;;;;0.60;0.20;;;20.00;99.90;;;;;;5068479;28;20449;-79
2022/08/06 09:08:56;;;;;;;0.70;0.10;;;20.00;99.90;;;;;;5070565;28;20437;-79
2022/08/06 09:11:32;;;;;;;0.70;0.10;;;20.10;99.90;;;;;;5072514;28;20923;-78
2022/08/06 09:14:21;;;;;;;0.80;0.30;;;20.10;99.90;;;;;;5064671;28;20959;-78
2022/08/06 09:17:01;;;;;;;0.60;0.10;;;20.10;99.90;;;;;;5067065;28;20581;-76
2022/08/06 09:19:30;;;;;;;0.60;0.20;;;20.10;99.90;;;;;;5072719;28;20850;-76
2022/08/06 09:22:08;;;;;;;0.70;0.30;;;20.20;99.90;;;;;;5074894;28;20514;-77
2022/08/06 09:24:39;;;;;;;0.70;0.10;;;20.30;99.90;;;;;;5067013;28;20538;-78
2022/08/06 09:27:10;;;;;;;0.67;0.17;;;20.30;99.90;;;;;;5054551;28;20455;-76
2022/08/06 09:30:00;;;;;;;0.63;0.13;;;20.40;99.90;;;;;;5073191;28;20434;-77
2022/08/06 09:32:40;;;;;;;0.70;0.20;;;20.50;99.90;;;;;;5064655;28;20481;-77
2022/08/06 09:35:26;;;;;;;0.70;0.20;;;20.40;99.90;;;;;;5055332;28;20461;-77
2022/08/06 09:38:13;;;;;;;0.70;0.10;;;;;;;;;;5073196;28;20480;-77
2022/08/06 09:41:09;;;;;;;0.70;0.10;;;20.50;99.90;;;;;;5073745;28;20445;-77
2022/08/06 09:43:44;;;;;;;0.70;0.20;;;20.50;99.90;;;;;;5068200;28;20479;-75
2022/08/06 09:46:39;;;;;;;0.70;0.20;;;20.50;99.90;;;;;;5071744;28;20437;-69
2022/08/06 09:49:08;;;;;;;0.70;0.20;;;20.50;99.90;;;;;;5054213;28;20503;-76
2022/08/06 09:52:12;;;;;;;0.70;0.10;;;20.60;99.90;;;;;;5066739;28;20458;-77
2022/08/06 09:54:41;;;;;;;0.70;0.30;;;20.60;99.90;;;;;;5060691;28;20499;-77
2022/08/06 09:57:09;;;;;;;0.70;0.10;;;20.70;99.90;;;;;;5059458;28;20764;-77
2022/08/06 09:59:45;;;;;;;0.70;0.13;;;20.70;99.90;;;;;;5074501;28;20453;-77
2022/08/06 10:02:18;;;;;;;0.70;0.10;;;20.80;99.90;;;;;;5071657;28;20466;-76
2022/08/06 10:05:08;;;;;;;0.70;0.10;;;20.80;99.90;;;;;;5064064;28;20444;-76
2022/08/06 10:07:48;;;;;;;0.70;0.10;;;20.90;99.90;;;;;;5052282;28;20446;-77
2022/08/06 10:10:37;;;;;;;0.80;0.43;;;21.00;99.90;;;;;;5052925;28;20461;-77
2022/08/06 10:13:13;;;;;;;0.70;0.20;;;21.10;99.90;;;;;;5052425;28;20498;-77
2022/08/06 10:15:44;;;;;;;0.70;0.20;;;21.10;99.90;;;;;;5058086;28;20426;-77
2022/08/06 10:18:34;;;;;;;0.70;0.10;;;21.30;99.90;;;;;;5061134;28;20456;-77
2022/08/06 10:21:23;;;;;;;0.70;0.10;;;21.30;99.90;;;;;;5064293;28;20437;-77
2022/08/06 10:23:56;;;;;;;0.70;0.10;;;21.30;99.90;;;;;;5074043;28;20477;-77
2022/08/06 10:26:27;;;;;;;0.70;0.10;;;21.30;99.90;;;;;;5071716;28;21153;-76
2022/08/06 10:29:05;;;;;;;0.70;0.10;;;21.30;99.90;;;;;;5072693;28;20493;-77
2022/08/06 10:31:36;;;;;;;0.70;0.10;;;;;;;;;;5072923;28;20450;-77
2022/08/06 10:34:10;;;;;;;0.70;0.10;;;21.40;99.90;;;;;;5072156;28;20967;-77
2022/08/06 10:36:41;;;;;;;0.70;0.20;;;21.40;99.90;;;;;;5067697;28;20608;-77
2022/08/06 10:39:10;;;;;;;0.70;0.20;;;21.50;99.90;;;;;;5067700;28;20452;-77
2022/08/06 10:41:59;;;;;;;0.70;0.10;;;21.60;99.90;;;;;;5069406;28;20469;-77
2022/08/06 10:44:35;;;;;;;0.70;0.10;;;21.60;99.90;;;;;;5061502;28;20510;-77
2022/08/06 10:47:12;;;;;;;0.70;0.20;;;21.60;99.90;;;;;;5063417;28;20449;-76
2022/08/06 10:50:01;;;;;;;0.70;0.10;;;21.70;99.90;;;;;;5050754;28;20846;-76
2022/08/06 10:52:50;;;;;;;0.70;0.20;;;21.70;99.90;;;;;;5050655;28;20520;-77
2022/08/06 10:55:18;;;;;;;0.70;0.20;;;21.80;99.90;;;;;;5053889;28;20438;-78
2022/08/06 10:57:47;;;;;;;0.70;0.20;;;21.90;99.90;;;;;;5059790;28;20491;-77
2022/08/06 11:00:18;;;;;;;0.70;0.10;;;21.90;99.90;;;;;;5055532;28;20447;-77
2022/08/06 11:02:57;;;;;;;0.70;0.10;;;21.80;99.90;;;;;;5072090;28;20462;-77
2022/08/06 11:05:30;;;;;;;0.70;0.10;;;21.80;99.90;;;;;;5072046;28;20525;-77
2022/08/06 11:08:38;;;;;;;0.70;0.20;;;21.90;99.90;;;;;;5070165;28;20467;-77
2022/08/06 11:11:32;;;;;;;0.70;0.20;;;22.00;99.90;;;;;;5071651;28;20437;-77
2022/08/06 11:14:14;;;;;;;0.70;0.20;;;22.20;99.90;;;;;;5070265;28;20441;-77
2022/08/06 11:16:55;;;;;;;0.70;0.20;;;22.30;99.90;;;;;;5051528;28;20558;-78
2022/08/06 11:19:40;;;;;;;0.70;0.10;;;22.30;99.90;;;;;;5067595;28;20491;-76
2022/08/06 11:22:34;;;;;;;0.70;0.10;;;22.40;99.90;;;;;;5071581;28;20473;-76
2022/08/06 11:25:03;;;;;;;0.70;0.20;;;22.40;99.90;;;;;;5066526;28;20500;-75
2022/08/06 11:27:53;;;;;;;0.70;0.20;;;22.50;99.90;;;;;;5051152;28;20442;-76
2022/08/06 11:30:43;;;;;;;0.70;0.20;;;22.60;99.90;;;;;;5069500;28;20542;-75
2022/08/06 11:33:16;;;;;;;0.70;0.20;;;22.60;99.90;;;;;;5069245;28;20481;-75
2022/08/06 11:35:49;;;;;;;0.70;0.20;;;22.60;99.90;;;;;;5068625;28;20476;-76
2022/08/06 11:38:57;;;;;;;0.70;0.30;;;22.70;99.90;;;;;;5052554;28;20493;-76
2022/08/06 11:41:47;;;;;;;0.70;0.20;;;22.80;99.90;;;;;;5064875;28;20513;-76
2022/08/06 11:44:25;;;;;;;0.70;0.10;;;22.80;99.90;;;;;;5068789;28;20471;-75
2022/08/06 11:47:14;;;;;;;0.70;0.20;;;22.80;99.90;;;;;;5062250;28;20958;-77
2022/08/06 11:49:43;;;;;;;0.70;0.20;;;22.80;99.90;;;;;;5061392;28;20476;-74
2022/08/06 11:52:42;;;;;;;0.70;0.13;;;22.80;99.90;;;;;;5059010;28;20471;-75
2022/08/06 11:55:14;;;;;;;0.70;0.10;;;22.90;99.90;;;;;;5068819;28;20506;-76
2022/08/06 11:57:53;;;;;;;0.70;0.20;;;22.90;99.90;;;;;;5069458;28;20472;-76
2022/08/06 12:00:23;;;;;;;0.70;0.20;;;22.80;99.90;;;;;;5067388;28;20461;-76
2022/08/06 12:02:58;;;;;;;0.70;0.10;;;22.90;99.90;;;;;;5050010;28;20473;-76
2022/08/06 12:05:34;;;;;;;0.70;0.30;;;22.80;99.90;;;;;;5049647;28;20557;-76
2022/08/06 12:08:27;;;;;;;0.70;0.10;;;22.90;99.90;;;;;;5050030;28;20453;-75
2022/08/06 12:11:41;;;;;;;0.70;0.20;;;23.00;99.90;;;;;;5058041;28;20438;-76
2022/08/06 12:14:40;;;;;;;0.70;0.10;;;23.20;99.90;;;;;;5066991;28;20472;-76
2022/08/06 12:17:17;;;;;;;0.70;0.10;;;23.20;99.90;;;;;;5070515;28;20465;-77
2022/08/06 12:19:46;;;;;;;0.70;0.10;;;23.20;99.90;;;;;;5049799;28;20453;-77
2022/08/06 12:22:31;;;;;;;0.70;0.10;;;23.30;99.90;;;;;;5054709;28;20457;-76
2022/08/06 12:25:05;;;;;;;0.70;0.20;;;23.30;99.90;;;;;;5073138;28;20520;-74
2022/08/06 12:27:38;;;;;;;0.70;0.10;;;23.30;99.90;;;;;;5072755;28;20525;-74
2022/08/06 12:30:17;;;;;;;0.70;0.10;;;23.30;99.90;;;;;;5061028;28;20437;-76
2022/08/06 12:33:05;;;;;;;0.70;0.20;;;23.40;99.90;;;;;;5072898;28;20457;-76
2022/08/06 12:35:49;;;;;;;0.70;0.20;;;23.30;99.90;;;;;;5065676;28;20474;-76
2022/08/06 12:38:18;;;;;;;0.70;0.20;;;23.30;99.90;;;;;;5069046;28;20484;-75
2022/08/06 12:40:57;;;;;;;0.70;0.10;;;23.40;99.90;;;;;;5067527;28;20499;-76
2022/08/06 12:43:26;;;;;;;0.70;0.10;;;23.50;99.90;;;;;;5055186;28;20472;-75
2022/08/06 12:46:15;;;;;;;0.70;0.20;;;23.60;99.90;;;;;;5070423;28;20432;-75
2022/08/06 12:48:49;;;;;;;0.70;0.10;;;23.60;99.90;;;;;;5076381;28;20437;-78
2022/08/06 12:51:19;;;;;;;0.70;0.20;;;23.60;99.90;;;;;;5081304;28;20446;-77
2022/08/06 12:54:00;;;;;;;0.70;0.20;;;23.60;99.90;;;;;;5060974;28;20454;-76
2022/08/06 12:56:33;;;;;;;0.70;0.20;;;23.70;99.90;;;;;;5070229;28;20443;-75
2022/08/06 12:59:07;;;;;;;0.70;0.20;;;23.80;99.90;;;;;;5064505;28;20466;-78
2022/08/06 13:01:51;;;;;;;0.70;0.20;;;23.90;99.90;;;;;;5055570;28;20974;-77
2022/08/06 13:04:37;;;;;;;0.70;0.20;;;23.90;99.90;;;;;;5073140;28;20510;-79
2022/08/06 13:07:07;;;;;;;0.70;0.17;;;23.90;99.90;;;;;;5069939;28;20430;-75
2022/08/06 13:09:41;;;;;;;0.70;0.20;;;23.80;99.90;;;;;;5072377;28;20936;-76
2022/08/06 13:12:31;;;;;;;0.70;0.10;;;23.80;99.90;;;;;;5066855;28;20554;-74
2022/08/06 13:15:19;;;;;;;1.07;0.77;;;23.80;99.90;;;;;;5065172;28;20425;-76
2022/08/06 13:18:07;;;;;;;0.70;0.20;;;;;;;;;;5061470;28;20564;-76
2022/08/06 13:20:56;;;;;;;0.70;0.10;;;23.80;99.90;;;;;;5057981;28;20441;-75
2022/08/06 13:23:30;;;;;;;0.70;0.20;;;23.80;99.90;;;;;;5053215;28;20469;-76
2022/08/06 13:26:13;;;;;;;0.70;0.10;;;23.80;99.90;;;;;;5065696;28;20446;-76
2022/08/06 13:29:13;;;;;;;0.70;0.20;;;23.80;99.90;;;;;;5054750;28;20989;-74
2022/08/06 13:32:04;;;;;;;0.70;0.20;;;24.00;99.90;;;;;;5052478;28;20806;-75
2022/08/06 13:34:54;;;;;;;0.70;0.10;;;24.00;99.90;;;;;;5052225;28;20860;-74
2022/08/06 13:37:42;;;;;;;1.43;0.90;;;24.00;99.90;;;;;;5052638;28;20851;-75
2022/08/06 13:40:44;;;;;;;0.70;0.20;;;24.00;99.90;;;;;;5052466;28;20445;-75
2022/08/06 13:43:19;;;;;;;1.00;0.33;;;24.10;99.90;;;;;;5052679;28;20478;-75
2022/08/06 13:46:10;;;;;;;0.70;0.10;;;24.10;99.90;;;;;;5061328;28;20461;-74
2022/08/06 13:48:48;;;;;;;0.70;0.10;;;24.10;99.90;;;;;;5060304;28;20457;-74
2022/08/06 13:51:21;;;;;;;0.70;0.10;;;24.10;99.90;;;;;;5071342;28;20545;-74
2022/08/06 13:53:56;;;;;;;0.70;0.10;;;24.20;99.90;;;;;;5066826;28;20461;-74